MDT,Max TemperatureF,Mean TemperatureF,Min TemperatureF,Max Dew PointF,MeanDew PointF,Min DewpointF,Max Humidity, Mean Humidity, Min Humidity, Max Sea Level PressureIn, Mean Sea Level PressureIn, Min Sea Level PressureIn, Max VisibilityMiles, Mean VisibilityMiles, Min VisibilityMiles, Max Wind SpeedMPH, Mean Wind SpeedMPH, Max Gust SpeedMPH,PrecipitationIn, CloudCover, Events, WindDirDegrees
2013-9-1,93,70,46,41,36,29,65,38,10,30.04,29.94,29.84,10,10,10,13,6,16,0.00,0,,117
2013-9-2,92,74,55,40,37,33,46,30,14,29.88,29.82,29.75,10,10,10,23,6,30,0.00,0,,279
2013-9-3,92,75,57,46,42,39,47,33,18,30.03,29.96,29.90,10,10,10,21,9,24,0.00,1,,267
2013-9-4,91,78,64,50,48,46,56,40,23,30.04,30.00,29.95,10,10,10,13,5,21,0.00,2,,202
2013-9-5,93,76,58,62,52,48,78,51,23,30.00,29.95,29.87,10,10,8,43,5,62,T,1,Rain,271
2013-9-6,87,71,54,63,57,53,100,67,34,30.02,29.97,29.90,10,10,5,25,7,30,0.36,1,Rain,360
2013-9-7,75,66,57,61,60,56,100,79,58,30.15,30.08,29.99,10,9,5,14,4,16,0.00,7,Rain,346
2013-9-8,73,62,50,61,56,44,100,79,58,30.06,29.99,29.87,10,5,0,26,6,31,0.01,6,Fog,257
2013-9-9,79,66,53,52,48,45,77,54,30,30.01,29.93,29.89,10,10,10,21,12,28,0.01,4,,245
2013-9-10,83,66,49,49,46,39,83,53,22,30.08,30.03,29.99,10,10,10,18,6,30,0.00,0,,213
2013-9-11,83,65,47,49,45,41,86,55,23,30.25,30.20,30.10,10,10,10,20,9,25,0.00,0,,55
2013-9-12,84,66,48,48,45,44,80,53,26,30.25,30.12,29.95,10,10,10,13,6,15,0.00,0,,93
2013-9-13,88,70,51,50,46,41,83,52,21,29.92,29.82,29.73,10,10,10,15,6,18,0.00,0,,223
2013-9-14,78,66,54,49,46,39,77,55,33,30.10,29.99,29.80,10,10,10,20,11,28,0.00,0,,9
2013-9-15,83,64,45,52,46,42,86,58,30,30.14,29.99,29.80,10,10,10,26,7,35,0.00,0,,123
2013-9-16,90,75,59,53,48,41,63,42,21,29.80,29.72,29.63,10,10,10,30,11,41,T,0,,205
2013-9-17,70,60,49,49,45,41,80,60,40,29.77,29.69,29.58,10,10,10,25,8,31,T,2,,201
2013-9-18,59,50,41,46,40,34,93,70,47,30.13,29.79,29.55,10,10,9,24,13,29,0.06,5,Rain,285
2013-9-19,67,51,35,43,38,35,100,66,32,30.22,30.13,30.04,10,10,10,13,6,15,T,2,,194
2013-9-20,80,63,45,36,31,24,65,39,13,30.02,29.84,29.64,10,10,10,20,11,25,0.00,0,,192
2013-9-21,85,71,57,33,27,23,36,24,12,29.63,29.55,29.45,10,10,10,25,13,31,0.00,1,,218
2013-9-22,70,58,46,48,39,32,71,52,32,29.64,29.58,29.53,10,10,10,24,8,30,T,3,Rain,233
2013-9-23,63,54,45,38,32,27,65,46,27,29.88,29.78,29.64,10,10,10,37,19,44,0.00,0,,227
2013-9-24,60,53,46,46,39,31,93,67,40,29.88,29.81,29.73,10,10,5,18,9,23,0.14,4,Rain,203
2013-9-25,50,46,41,45,43,39,100,88,76,29.89,29.78,29.72,10,8,0,23,11,30,0.15,8,Fog-Rain,17
2013-9-26,50,44,37,41,36,29,100,73,46,30.09,29.99,29.85,10,9,3,18,10,24,0.11,6,Rain,336
2013-9-27,59,46,32,48,31,26,100,66,31,30.08,29.95,29.84,10,10,1,26,15,36,0.00,2,,214
2013-9-28,61,53,45,39,36,34,65,53,40,29.87,29.78,29.62,10,10,10,30,20,37,0.00,2,,220
2013-9-29,62,55,48,41,34,28,56,45,33,29.66,29.55,29.40,10,10,10,40,22,52,T,1,Rain,224
2013-9-30,58,52,46,39,30,24,59,45,30,29.78,29.58,29.42,10,10,10,53,29,64,0.00,1,,228